Sumperk, Czech Republic
Current Conditions -  °F | °C
As of 1:00 AM on Friday 19 Dec 2014 (Local Time) from LKMT Reporting Station
Light Rain Light Rain  
Wind Chill: 42°   Ceiling: 1800
Heat Index: 48°   Visibility: 6mi
Dew Point: 45°   Wind: 16mph
Humidity: 87%   Direction: 200°SSW
Pressure: 29.91"   Gusts: NA
Location:  49.97°N, 16.97°E
Report Text: LKMT 182300Z 20014KT 9999 -RA BKN018 OVC035 09/07 Q1013 TEMPO-RA BKN013
Loading
Personal Weather Stations






























Interactive Weather Map New forecast layout! Learn more

10-Day Weather Forecast

Advertisements
Track Severe Weather on mobile